KMZZ/MZZ METAR and TAF weather

Enter ICAO airport designator
Station Type Date Time Source
KMZZ METAR 2020/11/27 13:15 UTC NOAA

KMZZ 271315Z AUTO 27007KT 7SM OVC018 05/03 A3014 RMK AO2 T00490028


Station Type Date Time Source
KMZZ Decoded METAR 2020/11/27 13:15 UTC NOAA

Station name not available
Nov 27, 2020 - 08:15 AM EST / 2020.11.27 1315 UTC
Wind: from the W (270 degrees) at 8 MPH (7 KT):0
Visibility: 7 mile(s):0
Sky conditions: overcast
Temperature: 40.8 F (4.9 C)
Dew Point: 37.0 F (2.8 C)
Relative Humidity: 86%
Pressure (altimeter): 30.14 in. Hg (1020 hPa)
ob: KMZZ 271315Z AUTO 27007KT 7SM OVC018 05/03 A3014 RMK AO2 T00490028
cycle: 13

Station Type Date Time Source
KMZZ TAF UTC NOAA

Error!

Example: see airport list